Bookmark and Share
Track history (hours):
 

Heloise

Last reported at 2014-Apr-04 16:32 UTC. Time now 2014-Apr-19 17:06 UTC.
Position N 44°01' W 076°29'.
Warning: this ship's position is 15 days out of date.

Length 186 m; draft 10.6 m.

Type: Cargo ship. MMSI: 352302000.

NotesDate/timePositionNaut miles runAvg speedWind from/ knotsBaromVisibWave heightAir tempDewpointWater temp
2014-Apr-04 16:32N 44°01' W 076°29'10 9.7
2014-Apr-04 15:33N 44°08' W 076°20'1110.5
2014-Apr-04 14:33N 44°14' W 076°08'87 3.7
2014-Apr-03 15:05N 45°05' W 074°30'5 9.3
2014-Apr-03 14:33N 45°08' W 074°24'1010.1
2014-Apr-03 13:33N 45°14' W 074°12'8 8.2
2014-Apr-03 12:33N 45°14' W 074°00'6 5.5
2014-Apr-03 11:33N 45°18' W 073°56'1 0.8
2014-Apr-03 10:33N 45°19' W 073°55'0 0.4
2014-Apr-03 09:33N 45°19' W 073°55'0 0.0
2014-Apr-03 08:33N 45°19' W 073°55'0 0.0
2014-Apr-03 07:33N 45°19' W 073°55'0 0.0
2014-Apr-03 06:33N 45°19' W 073°55'0 0.0
2014-Apr-03 05:33N 45°19' W 073°55'0 0.0
2014-Apr-03 04:33N 45°19' W 073°55'0 0.0
2014-Apr-03 03:33N 45°19' W 073°55'0 0.0
2014-Apr-03 02:33N 45°19' W 073°55'0 0.0
2014-Apr-03 01:33N 45°19' W 073°55'0 0.0
2014-Apr-03 00:33N 45°19' W 073°55'0 0.0
2014-Apr-02 23:33N 45°19' W 073°55'0 0.0
2014-Apr-02 22:33N 45°19' W 073°55'0 0.0
2014-Apr-02 21:33N 45°19' W 073°55'0 0.0
2014-Apr-02 20:33N 45°19' W 073°55'0 0.0
2014-Apr-02 19:33N 45°19' W 073°55'0 0.0
2014-Apr-02 18:33N 45°19' W 073°55'0 0.0
2014-Apr-02 17:33N 45°19' W 073°55'0 0.0
2014-Apr-02 16:33N 45°19' W 073°55'3 3.5
2014-Apr-02 15:33N 45°21' W 073°51'8 7.8
2014-Apr-02 14:33N 45°25' W 073°41'5 4.8
2014-Apr-02 13:33N 45°24' W 073°34'0 0.4
2014-Apr-02 12:33N 45°24' W 073°34'4 3.9
2014-Apr-02 11:33N 45°28' W 073°30'2 2.2
2014-Apr-02 10:33N 45°30' W 073°31'3 3.2
2014-Apr-02 09:33N 45°33' W 073°31'8 8.1
2014-Apr-02 08:33N 45°41' W 073°27'10 9.8
2014-Apr-02 07:33N 45°48' W 073°19'10 9.8
2014-Apr-02 06:33N 45°57' W 073°13'23 9.5
2014-Apr-02 04:10N 46°13' W 072°49'710.6
2014-Apr-02 03:33N 46°16' W 072°41'7 7.2
2014-Apr-02 02:33N 46°20' W 072°32'8 7.8
2014-Apr-02 01:33N 46°24' W 072°23'0 0.1
2014-Apr-02 00:32N 46°24' W 072°23'0 0.0
2014-Apr-01 23:32N 46°24' W 072°23'0 0.0
2014-Apr-01 22:32N 46°24' W 072°23'0 0.0
2014-Apr-01 21:32N 46°24' W 072°23'0 0.0
2014-Apr-01 20:32N 46°24' W 072°23'0 0.0
2014-Apr-01 19:32N 46°24' W 072°23'0 0.0
2014-Apr-01 18:32N 46°24' W 072°23'0 0.0
2014-Apr-01 17:32N 46°24' W 072°23'0 0.0
2014-Apr-01 16:32N 46°24' W 072°23'0 0.0
2014-Apr-01 15:32N 46°24' W 072°23'0 0.0
2014-Apr-01 14:32N 46°24' W 072°23'0 0.0
2014-Apr-01 13:32N 46°24' W 072°23'0 0.0
2014-Apr-01 12:32N 46°24' W 072°23'0 0.0
2014-Apr-01 11:32N 46°24' W 072°23'0 0.0
2014-Apr-01 10:32N 46°24' W 072°23'0 0.0
2014-Apr-01 09:32N 46°24' W 072°23'0 0.0
2014-Apr-01 08:32N 46°24' W 072°23'0 0.0
2014-Apr-01 07:26N 46°24' W 072°23'0 0.0
2014-Apr-01 06:32N 46°24' W 072°23'0 0.0
2014-Apr-01 05:32N 46°24' W 072°23'0 0.0
2014-Apr-01 04:32N 46°24' W 072°23'0 0.0
2014-Apr-01 03:32N 46°24' W 072°23'0 0.0
2014-Apr-01 02:32N 46°24' W 072°23'0 0.0
2014-Apr-01 01:32N 46°24' W 072°23'0 0.0
2014-Apr-01 00:32N 46°24' W 072°23'0 0.0
2014-Mar-31 23:32N 46°24' W 072°23'0 0.0
2014-Mar-31 22:32N 46°24' W 072°23'0 0.0
2014-Mar-31 21:32N 46°24' W 072°23'0 0.0
2014-Mar-31 20:32N 46°24' W 072°23'0 0.0
2014-Mar-31 19:32N 46°24' W 072°23'0 0.0
2014-Mar-31 18:32N 46°24' W 072°23'0 0.0
2014-Mar-31 17:32N 46°24' W 072°23'0 0.0
2014-Mar-31 16:32N 46°24' W 072°23'0 0.0
2014-Mar-31 15:32N 46°24' W 072°23'0 0.0
2014-Mar-31 14:32N 46°24' W 072°23'0 0.0
2014-Mar-31 13:32N 46°24' W 072°23'0 0.0
2014-Mar-31 12:32N 46°24' W 072°23'0 0.0
2014-Mar-31 11:32N 46°24' W 072°23'0 0.0
2014-Mar-31 05:20N 46°24' W 072°23'0 0.0
2014-Mar-31 04:32N 46°24' W 072°23'0 0.0
2014-Mar-31 03:32N 46°24' W 072°23'0 0.0
2014-Mar-31 02:32N 46°24' W 072°23'0 0.0
2014-Mar-31 01:32N 46°24' W 072°23'0 0.0
2014-Mar-31 00:32N 46°24' W 072°23'0 0.0
2014-Mar-30 23:32N 46°24' W 072°23'0 0.0
2014-Mar-30 22:32N 46°24' W 072°23'0 0.0
2014-Mar-30 21:32N 46°24' W 072°23'0 0.0
2014-Mar-30 20:32N 46°24' W 072°23'0 0.0
2014-Mar-30 19:32N 46°24' W 072°23'0 0.0
2014-Mar-30 18:32N 46°24' W 072°23'0 0.0
2014-Mar-30 17:26N 46°24' W 072°23'0 0.0
2014-Mar-30 16:32N 46°24' W 072°23'0 0.0
2014-Mar-30 15:32N 46°24' W 072°23'0 0.0
2014-Mar-30 14:32N 46°24' W 072°23'0 0.0
2014-Mar-30 13:32N 46°24' W 072°23'0 0.0
2014-Mar-30 12:32N 46°24' W 072°23'0 0.0
2014-Mar-30 11:32N 46°24' W 072°23'0 0.0
2014-Mar-30 10:32N 46°24' W 072°23'0 0.0
2014-Mar-30 09:32N 46°24' W 072°23'0 0.0
2014-Mar-30 08:32N 46°24' W 072°23'0 0.0
2014-Mar-30 07:32N 46°24' W 072°23'0 0.0
2014-Mar-30 06:32N 46°24' W 072°23'0 0.0
2014-Mar-30 05:32N 46°24' W 072°23'0 0.0
2014-Mar-30 04:32N 46°24' W 072°23'0 0.0
2014-Mar-30 03:32N 46°24' W 072°23'0 0.0
2014-Mar-30 02:32N 46°24' W 072°23'0 0.0
2014-Mar-30 01:32N 46°24' W 072°23'0 0.0
2014-Mar-30 00:32N 46°24' W 072°23'0 0.0
2014-Mar-29 23:32N 46°24' W 072°23'0 0.0
2014-Mar-29 22:32N 46°24' W 072°23'0 0.0
2014-Mar-29 21:32N 46°24' W 072°23'0 0.0
2014-Mar-29 20:14N 46°24' W 072°23'0 0.0
2014-Mar-29 19:32N 46°24' W 072°23'0 0.0
2014-Mar-29 18:32N 46°24' W 072°23'0 0.0
2014-Mar-29 17:32N 46°24' W 072°23'0 0.0
2014-Mar-29 16:32N 46°24' W 072°23'0 0.0
2014-Mar-29 15:32N 46°24' W 072°23'0 0.0
2014-Mar-29 14:32N 46°24' W 072°23'0 0.0
2014-Mar-29 13:32N 46°24' W 072°23'0 0.0
2014-Mar-29 12:26N 46°24' W 072°23'0 0.0
2014-Mar-29 11:26N 46°24' W 072°23'0 0.0
2014-Mar-29 10:32N 46°24' W 072°23'0 0.0
2014-Mar-29 09:32N 46°24' W 072°23'0 0.0
2014-Mar-29 08:32N 46°24' W 072°23'0 0.0
2014-Mar-29 07:32N 46°24' W 072°23'0 0.0
2014-Mar-29 06:32N 46°24' W 072°23'0 0.0
2014-Mar-29 05:32N 46°24' W 072°23'0 0.0
2014-Mar-29 04:32N 46°24' W 072°23'0 0.0
2014-Mar-29 03:32N 46°24' W 072°23'0 0.0
2014-Mar-29 02:32N 46°24' W 072°23'0 0.0
2014-Mar-29 01:32N 46°24' W 072°23'0 0.0
2014-Mar-29 00:26N 46°24' W 072°23'0 0.0
2014-Mar-28 23:32N 46°24' W 072°23'0 0.0
2014-Mar-28 22:32N 46°24' W 072°23'0 0.0
2014-Mar-28 21:32N 46°24' W 072°23'0 0.0
2014-Mar-28 20:32N 46°24' W 072°23'0 0.0
2014-Mar-28 19:32N 46°24' W 072°23'0 0.0
2014-Mar-28 18:29N 46°24' W 072°23'0 0.0
2014-Mar-28 17:29N 46°24' W 072°23'0 0.0
2014-Mar-28 16:29N 46°24' W 072°23'0 0.0
2014-Mar-28 15:29N 46°24' W 072°23'0 0.0
2014-Mar-28 14:29N 46°24' W 072°23'0 0.0
2014-Mar-28 13:29N 46°24' W 072°23'0 0.0
2014-Mar-28 12:29N 46°24' W 072°23'0 0.0
2014-Mar-28 11:23N 46°24' W 072°23'0 0.0
2014-Mar-28 10:29N 46°24' W 072°23'0 0.0
2014-Mar-28 09:29N 46°24' W 072°23'0 0.0
2014-Mar-28 08:29N 46°24' W 072°23'0 0.0
2014-Mar-28 07:29N 46°24' W 072°23'0 0.0
2014-Mar-28 06:23N 46°24' W 072°23'0 0.0
2014-Mar-28 05:29N 46°24' W 072°23'0 0.0
2014-Mar-28 04:29N 46°24' W 072°23'0 0.0
2014-Mar-28 03:29N 46°24' W 072°23'0 0.0
2014-Mar-28 02:29N 46°24' W 072°23'0 0.0
2014-Mar-28 01:29N 46°24' W 072°23'0 0.0
2014-Mar-28 00:29N 46°24' W 072°23'0 0.0
2014-Mar-27 23:29N 46°24' W 072°23'0 0.0
2014-Mar-27 22:29N 46°24' W 072°23'0 0.0
2014-Mar-27 21:29N 46°24' W 072°23'0 0.0
2014-Mar-27 20:29N 46°24' W 072°23'0 0.0
2014-Mar-27 19:29N 46°24' W 072°23'0 0.0
2014-Mar-27 18:29N 46°24' W 072°23'0 0.0
2014-Mar-27 17:29N 46°24' W 072°23'0 0.0
2014-Mar-27 16:29N 46°24' W 072°23'0 0.0
2014-Mar-27 15:29N 46°24' W 072°23'0 0.0
2014-Mar-27 14:29N 46°24' W 072°23'0 0.0
2014-Mar-27 13:29N 46°24' W 072°23'0 0.0
2014-Mar-27 12:29N 46°24' W 072°23'0 0.2
2014-Mar-27 11:33N 46°24' W 072°23'4 3.7
2014-Mar-27 10:33N 46°26' W 072°18'  

Dump ship's entire track history

sailing weather and tide predictions

Heloise — 3FLA7 — position and weather